KFYV/FYV METAR and TAF weather

Enter ICAO airport designator
Station Type Date Time Source
KFYV METAR 2020/09/26 11:53 UTC NOAA

KFYV 261153Z 20006KT 10SM CLR 16/15 A2995 RMK AO2 SLP133 T01560150 10183 20156 53004


Station Type Date Time Source
KFYV Decoded METAR 2020/09/26 11:53 UTC NOAA

FAYETTEVILLE DRAKE FIELD, AR, United States (KFYV) 36-00N 94-10W 379M
Sep 26, 2020 - 07:53 AM EDT / 2020.09.26 1153 UTC
Wind: from the SSW (200 degrees) at 7 MPH (6 KT):0
Visibility: 10 mile(s):0
Sky conditions: clear
Temperature: 60.1 F (15.6 C)
Dew Point: 59.0 F (15.0 C)
Relative Humidity: 96%
Pressure (altimeter): 29.95 in. Hg (1014 hPa)
Pressure tendency: 0.01 inches (0.4 hPa) higher than three hours ago
ob: KFYV 261153Z 20006KT 10SM CLR 16/15 A2995 RMK AO2 SLP133 T01560150 10183 20156 53004
cycle: 12

Station Type Date Time Source
KFYV TAF 2020/09/26 12:42 UTC NOAA

TAF KFYV 261137Z 2612/2712 20004KT P6SM SKC
TEMPO 2612/2614 4SM BR SCT002
FM261400 20009KT P6SM SCT015
FM261800 19011G19KT P6SM SKC
FM270000 18008KT P6SM FEW250

Example: see airport list